Albright, Illinois
Current Conditions -  °F | °C
As of 11:35 PM on Friday 24 Oct 2014 (Local Time) from KPRG Reporting Station
Overcast Overcast  
Wind Chill: 51°   Ceiling: 6000
Heat Index: 51°   Visibility: 7mi
Dew Point: 50°   Wind: 0mph
Humidity: 99%   Direction: NA
Pressure: 30.02"   Gusts: NA
Location:  39.4361°N, 87.7043°W
Report Text: KPRG 250435Z AUTO 00000KT 7SM SCT050 OVC060 10/10 A3002 RMK AO2 T01030102
Loading
Personal Weather Stations






























Interactive Weather Map New forecast layout! Learn more

10-Day Weather Forecast

Advertisements
Track Severe Weather on mobile